Terminal Aerodrome Forecast
Issued by NWS Melbourne, FL

Home | Current Version | Previous Version | Text Only | Print | Product List | Glossary On
Versions: 1 2 3 4 5 6 7 8 9 10 11 12 13 14 15 16 17 18 19 20 21 22 23 24
000
FTUS42 KMLB 252300
TAFDAB
TAF
KDAB 252331Z 2600/2624 33005KT 3SM RA SCT005 BKN015 OVC040
      TEMPO 2600/2602 1SM RA BKN010 OVC020
     FM260500 19010KT P6SM VCSH BKN010
     FM260900 32016G24KT P6SM VCSH BKN025=

USA.gov is the U.S. government's official web portal to all federal, state and local government web resources and services.